sensor_id;sensor_type;location;lat;lon;timestamp;pressure;altitude;pressure_sealevel;temperature;humidity
39449;BME280;25151;45.566;9.382;2023-06-24T00:02:47;99832.66;;;27.63;55.58
39449;BME280;25151;45.566;9.382;2023-06-24T00:05:52;99833.19;;;27.61;56.08
39449;BME280;25151;45.566;9.382;2023-06-24T00:08:57;99834.72;;;27.62;56.18
39449;BME280;25151;45.566;9.382;2023-06-24T00:12:04;99833.97;;;27.62;55.81
39449;BME280;25151;45.566;9.382;2023-06-24T00:15:07;99839.63;;;27.62;55.78
39449;BME280;25151;45.566;9.382;2023-06-24T00:18:10;99849.66;;;27.63;56.00
39449;BME280;25151;45.566;9.382;2023-06-24T00:21:12;99845.28;;;27.62;55.97
39449;BME280;25151;45.566;9.382;2023-06-24T00:24:14;99846.06;;;27.62;55.77
39449;BME280;25151;45.566;9.382;2023-06-24T00:27:17;99851.72;;;27.62;55.81
39449;BME280;25151;45.566;9.382;2023-06-24T00:30:19;99848.91;;;27.62;55.80
39449;BME280;25151;45.566;9.382;2023-06-24T00:33:21;99846.84;;;27.63;56.36
39449;BME280;25151;45.566;9.382;2023-06-24T00:36:24;99854.56;;;27.62;56.25
39449;BME280;25151;45.566;9.382;2023-06-24T00:39:27;99856.63;;;27.62;56.07
39449;BME280;25151;45.566;9.382;2023-06-24T00:42:30;99858.69;;;27.61;55.82
39449;BME280;25151;45.566;9.382;2023-06-24T00:45:33;99869.22;;;27.61;55.98
39449;BME280;25151;45.566;9.382;2023-06-24T00:48:35;99870.00;;;27.61;56.43
39449;BME280;25151;45.566;9.382;2023-06-24T00:51:38;99868.47;;;27.60;56.00
39449;BME280;25151;45.566;9.382;2023-06-24T00:54:41;99871.28;;;27.60;56.39
39449;BME280;25151;45.566;9.382;2023-06-24T00:57:45;99866.41;;;27.61;56.25
39449;BME280;25151;45.566;9.382;2023-06-24T01:00:51;99865.63;;;27.60;56.16
39449;BME280;25151;45.566;9.382;2023-06-24T01:03:58;99867.66;;;27.60;56.33
39449;BME280;25151;45.566;9.382;2023-06-24T01:07:00;99864.03;;;27.59;56.56
39449;BME280;25151;45.566;9.382;2023-06-24T01:10:03;99853.50;;;27.60;56.26
39449;BME280;25151;45.566;9.382;2023-06-24T01:13:09;99852.25;;;27.61;56.25
39449;BME280;25151;45.566;9.382;2023-06-24T01:16:21;99850.66;;;27.60;56.56
39449;BME280;25151;45.566;9.382;2023-06-24T01:19:54;99860.72;;;27.61;56.28
39449;BME280;25151;45.566;9.382;2023-06-24T01:23:27;99855.06;;;27.61;56.73
39449;BME280;25151;45.566;9.382;2023-06-24T01:30:35;99855.06;;;27.61;56.67
39449;BME280;25151;45.566;9.382;2023-06-24T01:33:46;99855.06;;;27.61;56.27
39449;BME280;25151;45.566;9.382;2023-06-24T01:36:57;99866.41;;;27.61;56.54
39449;BME280;25151;45.566;9.382;2023-06-24T01:40:08;99856.31;;;27.60;56.85
39449;BME280;25151;45.566;9.382;2023-06-24T01:43:12;99852.25;;;27.61;56.51
39449;BME280;25151;45.566;9.382;2023-06-24T01:46:16;99855.84;;;27.61;56.34
39449;BME280;25151;45.566;9.382;2023-06-24T01:49:27;99862.28;;;27.62;56.55
39449;BME280;25151;45.566;9.382;2023-06-24T01:52:30;99857.91;;;27.61;56.66
39449;BME280;25151;45.566;9.382;2023-06-24T01:55:34;99862.78;;;27.60;56.76
39449;BME280;25151;45.566;9.382;2023-06-24T01:58:38;99864.81;;;27.60;56.87
39449;BME280;25151;45.566;9.382;2023-06-24T02:01:40;99860.72;;;27.61;56.92
39449;BME280;25151;45.566;9.382;2023-06-24T02:04:45;99859.16;;;27.60;56.49
39449;BME280;25151;45.566;9.382;2023-06-24T02:07:47;99855.06;;;27.61;56.55
39449;BME280;25151;45.566;9.382;2023-06-24T02:10:52;99847.81;;;27.60;56.74
39449;BME280;25151;45.566;9.382;2023-06-24T02:13:56;99853.50;;;27.60;57.08
39449;BME280;25151;45.566;9.382;2023-06-24T02:17:03;99853.50;;;27.60;56.87
39449;BME280;25151;45.566;9.382;2023-06-24T02:20:09;99857.13;;;27.60;57.00
39449;BME280;25151;45.566;9.382;2023-06-24T02:23:12;99859.97;;;27.60;56.55
39449;BME280;25151;45.566;9.382;2023-06-24T02:26:15;99855.56;;;27.59;57.11
39449;BME280;25151;45.566;9.382;2023-06-24T02:29:19;99851.94;;;27.59;57.18
39449;BME280;25151;45.566;9.382;2023-06-24T02:32:21;99859.16;;;27.60;56.81
39449;BME280;25151;45.566;9.382;2023-06-24T02:35:25;99856.31;;;27.60;56.85
39449;BME280;25151;45.566;9.382;2023-06-24T02:38:27;99847.81;;;27.60;57.16
39449;BME280;25151;45.566;9.382;2023-06-24T02:41:29;99849.09;;;27.59;57.15
39449;BME280;25151;45.566;9.382;2023-06-24T02:44:32;99840.63;;;27.59;57.14
39449;BME280;25151;45.566;9.382;2023-06-24T02:47:36;99841.38;;;27.59;56.83
39449;BME280;25151;45.566;9.382;2023-06-24T02:50:39;99840.13;;;27.60;56.83
39449;BME280;25151;45.566;9.382;2023-06-24T02:53:45;99836.50;;;27.60;56.85
39449;BME280;25151;45.566;9.382;2023-06-24T02:56:48;99836.50;;;27.60;56.89
39449;BME280;25151;45.566;9.382;2023-06-24T02:59:51;99839.84;;;27.58;57.25
39449;BME280;25151;45.566;9.382;2023-06-24T03:02:54;99847.06;;;27.59;56.90
39449;BME280;25151;45.566;9.382;2023-06-24T03:05:58;99853.50;;;27.60;57.25
39449;BME280;25151;45.566;9.382;2023-06-24T03:09:03;99853.50;;;27.60;56.96
39449;BME280;25151;45.566;9.382;2023-06-24T03:12:06;99857.59;;;27.59;57.26
39449;BME280;25151;45.566;9.382;2023-06-24T03:15:09;99858.38;;;27.59;57.14
39449;BME280;25151;45.566;9.382;2023-06-24T03:18:11;99866.09;;;27.59;56.89
39449;BME280;25151;45.566;9.382;2023-06-24T03:21:15;99880.25;;;27.59;56.83
39449;BME280;25151;45.566;9.382;2023-06-24T03:24:17;99880.25;;;27.59;57.17
39449;BME280;25151;45.566;9.382;2023-06-24T03:27:19;99880.25;;;27.59;57.13
39449;BME280;25151;45.566;9.382;2023-06-24T03:30:21;99886.69;;;27.59;57.34
39449;BME280;25151;45.566;9.382;2023-06-24T03:33:23;99885.94;;;27.59;57.38
39449;BME280;25151;45.566;9.382;2023-06-24T03:36:26;99890.03;;;27.58;57.10
39449;BME280;25151;45.566;9.382;2023-06-24T03:39:28;99894.44;;;27.59;57.09
39449;BME280;25151;45.566;9.382;2023-06-24T03:42:30;99899.31;;;27.58;57.39
39449;BME280;25151;45.566;9.382;2023-06-24T03:45:32;99907.03;;;27.58;57.10
39449;BME280;25151;45.566;9.382;2023-06-24T03:48:35;99902.94;;;27.59;57.40
39449;BME280;25151;45.566;9.382;2023-06-24T03:51:39;99902.94;;;27.59;56.98
39449;BME280;25151;45.566;9.382;2023-06-24T03:54:40;99907.81;;;27.58;57.01
39449;BME280;25151;45.566;9.382;2023-06-24T03:57:45;99897.25;;;27.59;57.00
39449;BME280;25151;45.566;9.382;2023-06-24T04:00:48;99904.22;;;27.58;57.46
39449;BME280;25151;45.566;9.382;2023-06-24T04:03:50;99904.22;;;27.58;57.10
39449;BME280;25151;45.566;9.382;2023-06-24T04:06:55;99907.03;;;27.58;57.47
39449;BME280;25151;45.566;9.382;2023-06-24T04:09:58;99907.03;;;27.58;57.49
39449;BME280;25151;45.566;9.382;2023-06-24T04:13:00;99908.59;;;27.59;57.11
39449;BME280;25151;45.566;9.382;2023-06-24T04:16:02;99911.94;;;27.57;57.32
39449;BME280;25151;45.566;9.382;2023-06-24T04:19:05;99912.69;;;27.58;57.28
39449;BME280;25151;45.566;9.382;2023-06-24T04:22:08;99916.81;;;27.57;57.30
39449;BME280;25151;45.566;9.382;2023-06-24T04:25:10;99912.69;;;27.58;57.16
39449;BME280;25151;45.566;9.382;2023-06-24T04:28:12;99924.03;;;27.58;57.56
39449;BME280;25151;45.566;9.382;2023-06-24T04:31:15;99916.53;;;27.55;56.92
39449;BME280;25151;45.566;9.382;2023-06-24T04:34:18;99919.53;;;27.10;52.71
39449;BME280;25151;45.566;9.382;2023-06-24T04:37:22;99915.31;;;26.56;48.10
39449;BME280;25151;45.566;9.382;2023-06-24T04:40:25;99921.84;;;26.32;46.28
39449;BME280;25151;45.566;9.382;2023-06-24T04:43:29;99916.28;;;26.23;43.59
39449;BME280;25151;45.566;9.382;2023-06-24T04:46:33;99916.47;;;26.19;43.57
39449;BME280;25151;45.566;9.382;2023-06-24T04:49:37;99924.19;;;26.19;40.67
39449;BME280;25151;45.566;9.382;2023-06-24T04:52:42;99921.34;;;26.19;40.34
39449;BME280;25151;45.566;9.382;2023-06-24T04:55:46;99926.22;;;26.18;39.43
39449;BME280;25151;45.566;9.382;2023-06-24T04:58:50;99917.84;;;26.24;39.75
39449;BME280;25151;45.566;9.382;2023-06-24T05:01:55;99935.56;;;26.24;38.76
39449;BME280;25151;45.566;9.382;2023-06-24T05:05:00;99933.13;;;26.32;39.07
39449;BME280;25151;45.566;9.382;2023-06-24T05:08:06;99934.22;;;26.35;37.96
39449;BME280;25151;45.566;9.382;2023-06-24T05:11:10;99935.81;;;26.51;38.13
39449;BME280;25151;45.566;9.382;2023-06-24T05:14:15;99941.84;;;26.58;38.35
39449;BME280;25151;45.566;9.382;2023-06-24T05:17:19;99949.38;;;26.61;38.10
39449;BME280;25151;45.566;9.382;2023-06-24T05:20:23;99948.88;;;26.63;37.87
39449;BME280;25151;45.566;9.382;2023-06-24T05:23:29;99955.09;;;26.67;37.92
39449;BME280;25151;45.566;9.382;2023-06-24T05:26:33;99956.19;;;26.69;37.61
39449;BME280;25151;45.566;9.382;2023-06-24T05:29:38;99956.47;;;26.71;37.66
39449;BME280;25151;45.566;9.382;2023-06-24T05:32:43;99958.25;;;26.69;37.41
39449;BME280;25151;45.566;9.382;2023-06-24T05:35:48;99959.78;;;26.70;37.43
39449;BME280;25151;45.566;9.382;2023-06-24T05:38:54;99959.28;;;26.71;37.26
39449;BME280;25151;45.566;9.382;2023-06-24T05:41:58;99967.78;;;26.71;36.79
39449;BME280;25151;45.566;9.382;2023-06-24T05:45:03;99971.88;;;26.70;37.06
39449;BME280;25151;45.566;9.382;2023-06-24T05:48:06;99965.44;;;26.70;36.91
39449;BME280;25151;45.566;9.382;2023-06-24T05:51:13;99968.56;;;26.72;36.97
39449;BME280;25151;45.566;9.382;2023-06-24T05:54:19;99972.66;;;26.71;36.66
39449;BME280;25151;45.566;9.382;2023-06-24T05:57:22;99968.56;;;26.72;36.49
39449;BME280;25151;45.566;9.382;2023-06-24T06:00:27;99974.00;;;26.76;36.46
39449;BME280;25151;45.566;9.382;2023-06-24T06:03:32;99971.69;;;26.74;36.19
39449;BME280;25151;45.566;9.382;2023-06-24T06:06:36;99973.25;;;26.75;36.43
39449;BME280;25151;45.566;9.382;2023-06-24T06:09:42;99976.38;;;26.77;36.09
39449;BME280;25151;45.566;9.382;2023-06-24T06:12:46;99970.72;;;26.77;35.97
39449;BME280;25151;45.566;9.382;2023-06-24T06:15:49;99976.84;;;26.76;36.00
39449;BME280;25151;45.566;9.382;2023-06-24T06:18:53;99981.22;;;26.77;35.86
39449;BME280;25151;45.566;9.382;2023-06-24T06:22:00;99982.03;;;26.77;35.32
39449;BME280;25151;45.566;9.382;2023-06-24T06:25:09;99985.13;;;26.79;35.88
39449;BME280;25151;45.566;9.382;2023-06-24T06:28:13;99983.38;;;26.82;35.31
39449;BME280;25151;45.566;9.382;2023-06-24T06:31:17;99983.38;;;26.82;35.22
39449;BME280;25151;45.566;9.382;2023-06-24T06:34:22;99991.88;;;26.82;35.49
39449;BME280;25151;45.566;9.382;2023-06-24T06:37:26;100000.38;;;26.82;35.54
39449;BME280;25151;45.566;9.382;2023-06-24T06:40:32;100006.28;;;26.84;35.06
39449;BME280;25151;45.566;9.382;2023-06-24T06:43:38;100005.81;;;26.85;35.23
39449;BME280;25151;45.566;9.382;2023-06-24T06:46:42;100001.72;;;26.86;35.17
39449;BME280;25151;45.566;9.382;2023-06-24T06:49:48;99997.63;;;26.87;35.40
39449;BME280;25151;45.566;9.382;2023-06-24T06:52:52;100006.41;;;26.89;35.16
39449;BME280;25151;45.566;9.382;2023-06-24T06:56:02;100003.56;;;26.89;35.61
39449;BME280;25151;45.566;9.382;2023-06-24T06:59:08;100000.75;;;26.89;35.35
39449;BME280;25151;45.566;9.382;2023-06-24T07:02:17;100007.00;;;26.93;36.22
39449;BME280;25151;45.566;9.382;2023-06-24T07:05:20;100010.09;;;26.95;36.09
39449;BME280;25151;45.566;9.382;2023-06-24T07:08:23;100018.38;;;26.99;36.73
39449;BME280;25151;45.566;9.382;2023-06-24T07:11:27;100019.47;;;27.02;37.58
39449;BME280;25151;45.566;9.382;2023-06-24T07:14:31;100021.31;;;27.05;37.90
39449;BME280;25151;45.566;9.382;2023-06-24T07:17:36;100019.06;;;27.09;39.86
39449;BME280;25151;45.566;9.382;2023-06-24T07:20:40;100029.13;;;26.95;39.87
39449;BME280;25151;45.566;9.382;2023-06-24T07:23:45;100027.69;;;26.70;39.98
39449;BME280;25151;45.566;9.382;2023-06-24T07:26:50;100034.47;;;26.48;39.82
39449;BME280;25151;45.566;9.382;2023-06-24T07:29:54;100036.34;;;26.52;40.19
39449;BME280;25151;45.566;9.382;2023-06-24T07:32:58;100040.25;;;26.54;39.82
39449;BME280;25151;45.566;9.382;2023-06-24T07:36:11;100049.09;;;26.47;40.02
39449;BME280;25151;45.566;9.382;2023-06-24T07:39:15;100046.16;;;26.41;40.44
39449;BME280;25151;45.566;9.382;2023-06-24T07:42:20;100050.03;;;26.44;40.35
39449;BME280;25151;45.566;9.382;2023-06-24T07:45:23;100041.47;;;26.38;40.37
39449;BME280;25151;45.566;9.382;2023-06-24T07:48:26;100055.09;;;26.40;40.45
39449;BME280;25151;45.566;9.382;2023-06-24T07:51:30;100053.72;;;26.35;40.52
39449;BME280;25151;45.566;9.382;2023-06-24T07:54:40;100047.50;;;26.31;40.86
39449;BME280;25151;45.566;9.382;2023-06-24T07:57:49;100048.06;;;26.35;40.59
39449;BME280;25151;45.566;9.382;2023-06-24T08:00:53;100043.75;;;26.25;40.85
39449;BME280;25151;45.566;9.382;2023-06-24T08:03:58;100042.88;;;26.19;40.83
39449;BME280;25151;45.566;9.382;2023-06-24T08:07:04;100051.47;;;26.24;40.75
39449;BME280;25151;45.566;9.382;2023-06-24T08:10:10;100044.63;;;26.16;41.16
39449;BME280;25151;45.566;9.382;2023-06-24T08:13:18;100037.03;;;26.22;41.15
39449;BME280;25151;45.566;9.382;2023-06-24T08:16:22;100045.72;;;26.19;40.90
39449;BME280;25151;45.566;9.382;2023-06-24T08:19:25;100049.31;;;26.19;41.24
39449;BME280;25151;45.566;9.382;2023-06-24T08:22:29;100043.84;;;26.16;41.29
39449;BME280;25151;45.566;9.382;2023-06-24T08:25:32;100041.00;;;26.16;41.09
39449;BME280;25151;45.566;9.382;2023-06-24T08:28:37;100046.38;;;26.14;41.21
39449;BME280;25151;45.566;9.382;2023-06-24T08:31:42;100038.19;;;26.16;41.20
39449;BME280;25151;45.566;9.382;2023-06-24T08:34:45;100048.53;;;26.19;41.49
39449;BME280;25151;45.566;9.382;2023-06-24T08:37:49;100046.81;;;25.97;41.71
39449;BME280;25151;45.566;9.382;2023-06-24T08:40:52;100049.38;;;26.10;41.58
39449;BME280;25151;45.566;9.382;2023-06-24T08:43:58;100049.81;;;26.18;41.67
39449;BME280;25151;45.566;9.382;2023-06-24T08:47:01;100052.91;;;26.20;41.74
39449;BME280;25151;45.566;9.382;2023-06-24T08:50:07;100051.94;;;26.23;41.68
39449;BME280;25151;45.566;9.382;2023-06-24T08:53:12;100047.25;;;26.20;41.87
39449;BME280;25151;45.566;9.382;2023-06-24T08:56:16;100049.41;;;26.25;41.79
39449;BME280;25151;45.566;9.382;2023-06-24T08:59:21;100054.19;;;26.19;42.07
39449;BME280;25151;45.566;9.382;2023-06-24T09:02:24;100046.19;;;26.17;41.93
39449;BME280;25151;45.566;9.382;2023-06-24T09:05:28;100053.50;;;26.24;42.23
39449;BME280;25151;45.566;9.382;2023-06-24T09:08:33;100047.94;;;26.15;42.27
39449;BME280;25151;45.566;9.382;2023-06-24T09:11:41;100050.41;;;26.22;42.06
39449;BME280;25151;45.566;9.382;2023-06-24T09:14:50;100052.22;;;26.25;42.05
39449;BME280;25151;45.566;9.382;2023-06-24T09:17:53;100051.00;;;26.26;41.99
39449;BME280;25151;45.566;9.382;2023-06-24T09:20:57;100041.25;;;26.27;42.02
39449;BME280;25151;45.566;9.382;2023-06-24T09:24:04;100044.16;;;26.18;41.89
39449;BME280;25151;45.566;9.382;2023-06-24T09:27:09;100038.97;;;26.16;42.14
39449;BME280;25151;45.566;9.382;2023-06-24T09:30:21;100034.09;;;26.17;41.77
39449;BME280;25151;45.566;9.382;2023-06-24T09:33:25;100034.69;;;26.21;42.01
39449;BME280;25151;45.566;9.382;2023-06-24T09:36:29;100038.31;;;26.21;41.49
39449;BME280;25151;45.566;9.382;2023-06-24T09:39:37;100034.50;;;26.24;41.79
39449;BME280;25151;45.566;9.382;2023-06-24T09:42:49;100032.06;;;26.17;41.60
39449;BME280;25151;45.566;9.382;2023-06-24T09:45:56;100026.00;;;26.10;41.99
39449;BME280;25151;45.566;9.382;2023-06-24T09:49:00;100023.19;;;26.10;41.97
39449;BME280;25151;45.566;9.382;2023-06-24T09:52:08;100025.00;;;26.13;41.77
39449;BME280;25151;45.566;9.382;2023-06-24T09:55:14;100013.31;;;26.05;42.00
39449;BME280;25151;45.566;9.382;2023-06-24T09:58:19;100012.34;;;26.08;41.72
39449;BME280;25151;45.566;9.382;2023-06-24T10:01:26;100010.59;;;26.11;41.94
39449;BME280;25151;45.566;9.382;2023-06-24T10:04:30;100014.97;;;26.12;42.03
39449;BME280;25151;45.566;9.382;2023-06-24T10:07:35;100006.50;;;26.12;42.08
39449;BME280;25151;45.566;9.382;2023-06-24T10:10:40;100003.00;;;26.17;42.28
39449;BME280;25151;45.566;9.382;2023-06-24T10:13:45;100002.31;;;26.07;42.58
39449;BME280;25151;45.566;9.382;2023-06-24T10:16:50;100005.53;;;26.15;42.27
39449;BME280;25151;45.566;9.382;2023-06-24T10:19:55;99997.06;;;26.15;42.08
39449;BME280;25151;45.566;9.382;2023-06-24T10:22:58;99998.53;;;26.10;42.43
39449;BME280;25151;45.566;9.382;2023-06-24T10:26:04;99992.09;;;26.10;42.43
39449;BME280;25151;45.566;9.382;2023-06-24T10:29:11;99988.59;;;26.15;42.42
39449;BME280;25151;45.566;9.382;2023-06-24T10:32:23;99985.44;;;26.13;42.41
39449;BME280;25151;45.566;9.382;2023-06-24T10:35:27;99979.59;;;26.02;42.44
39449;BME280;25151;45.566;9.382;2023-06-24T10:38:33;99981.56;;;26.10;42.56
39449;BME280;25151;45.566;9.382;2023-06-24T10:41:41;99964.97;;;26.03;42.49
39449;BME280;25151;45.566;9.382;2023-06-24T10:44:48;99974.53;;;26.06;42.57
39449;BME280;25151;45.566;9.382;2023-06-24T10:47:54;99970.44;;;26.07;42.50
39449;BME280;25151;45.566;9.382;2023-06-24T10:51:01;99966.94;;;26.12;42.30
39449;BME280;25151;45.566;9.382;2023-06-24T10:54:05;99963.44;;;26.17;42.23
39449;BME280;25151;45.566;9.382;2023-06-24T10:57:13;99960.31;;;26.15;42.10
39449;BME280;25151;45.566;9.382;2023-06-24T11:00:17;99950.94;;;26.09;42.10
39449;BME280;25151;45.566;9.382;2023-06-24T11:03:22;99948.25;;;26.14;41.96
39449;BME280;25151;45.566;9.382;2023-06-24T11:06:25;99939.78;;;26.14;41.53
39449;BME280;25151;45.566;9.382;2023-06-24T11:09:29;99929.34;;;26.06;41.64
39449;BME280;25151;45.566;9.382;2023-06-24T11:12:35;99928.34;;;26.09;41.24
39449;BME280;25151;45.566;9.382;2023-06-24T11:15:41;99938.00;;;26.17;41.17
39449;BME280;25151;45.566;9.382;2023-06-24T11:18:46;99924.97;;;26.34;40.84
39449;BME280;25151;45.566;9.382;2023-06-24T11:21:49;99932.06;;;26.44;41.07
39449;BME280;25151;45.566;9.382;2023-06-24T11:24:54;99924.50;;;26.51;40.86
39449;BME280;25151;45.566;9.382;2023-06-24T11:27:58;99919.44;;;26.55;41.08
39449;BME280;25151;45.566;9.382;2023-06-24T11:31:07;99916.69;;;26.60;41.17
39449;BME280;25151;45.566;9.382;2023-06-24T11:34:16;99918.84;;;26.65;41.36
39449;BME280;25151;45.566;9.382;2023-06-24T11:37:31;99911.72;;;26.70;41.54
39449;BME280;25151;45.566;9.382;2023-06-24T11:40:35;99917.94;;;26.74;41.36
39449;BME280;25151;45.566;9.382;2023-06-24T11:43:44;99912.88;;;26.78;41.80
39449;BME280;25151;45.566;9.382;2023-06-24T11:46:48;99899.78;;;26.81;41.94
39449;BME280;25151;45.566;9.382;2023-06-24T11:49:56;99898.00;;;26.83;42.30
39449;BME280;25151;45.566;9.382;2023-06-24T11:53:00;99897.53;;;26.85;42.87
39449;BME280;25151;45.566;9.382;2023-06-24T11:56:04;99891.38;;;26.86;43.07
39449;BME280;25151;45.566;9.382;2023-06-24T11:59:16;99891.66;;;26.88;43.05
39449;BME280;25151;45.566;9.382;2023-06-24T12:02:20;99889.13;;;26.90;43.32
39449;BME280;25151;45.566;9.382;2023-06-24T12:05:27;99882.19;;;26.91;43.48
39449;BME280;25151;45.566;9.382;2023-06-24T12:08:32;99887.38;;;26.93;43.40
39449;BME280;25151;45.566;9.382;2023-06-24T12:11:41;99884.03;;;26.94;43.63
39449;BME280;25151;45.566;9.382;2023-06-24T12:14:46;99881.50;;;26.96;44.19
39449;BME280;25151;45.566;9.382;2023-06-24T12:17:51;99884.63;;;26.98;44.37
39449;BME280;25151;45.566;9.382;2023-06-24T12:20:58;99874.84;;;27.00;44.01
39449;BME280;25151;45.566;9.382;2023-06-24T12:24:04;99870.75;;;27.01;44.15
39449;BME280;25151;45.566;9.382;2023-06-24T12:27:08;99872.31;;;27.02;44.88
39449;BME280;25151;45.566;9.382;2023-06-24T12:30:13;99868.50;;;27.05;44.76
39449;BME280;25151;45.566;9.382;2023-06-24T12:33:17;99857.44;;;27.07;44.51
39449;BME280;25151;45.566;9.382;2023-06-24T12:36:26;99861.56;;;27.06;45.10
39449;BME280;25151;45.566;9.382;2023-06-24T12:39:30;99847.41;;;27.06;45.43
39449;BME280;25151;45.566;9.382;2023-06-24T12:42:34;99850.25;;;27.06;45.31
39449;BME280;25151;45.566;9.382;2023-06-24T12:45:38;99844.06;;;27.07;45.54
39449;BME280;25151;45.566;9.382;2023-06-24T12:48:44;99833.53;;;27.08;45.56
39449;BME280;25151;45.566;9.382;2023-06-24T12:51:50;99825.03;;;27.08;45.74
39449;BME280;25151;45.566;9.382;2023-06-24T12:54:54;99822.22;;;27.08;45.55
39449;BME280;25151;45.566;9.382;2023-06-24T12:57:58;99825.81;;;27.08;45.33
39449;BME280;25151;45.566;9.382;2023-06-24T13:01:03;99829.44;;;27.09;45.81
39449;BME280;25151;45.566;9.382;2023-06-24T13:04:07;99814.03;;;27.10;45.97
39449;BME280;25151;45.566;9.382;2023-06-24T13:07:13;99818.44;;;27.11;45.83
39449;BME280;25151;45.566;9.382;2023-06-24T13:10:16;99813.53;;;27.11;45.75
39449;BME280;25151;45.566;9.382;2023-06-24T13:13:19;99812.28;;;27.12;46.19
39449;BME280;25151;45.566;9.382;2023-06-24T13:16:22;99810.22;;;27.13;46.46
39449;BME280;25151;45.566;9.382;2023-06-24T13:19:25;99808.19;;;27.13;46.39
39449;BME280;25151;45.566;9.382;2023-06-24T13:22:31;99808.94;;;27.14;46.38
39449;BME280;25151;45.566;9.382;2023-06-24T13:25:37;99800.47;;;27.14;46.44
39449;BME280;25151;45.566;9.382;2023-06-24T13:28:42;99798.41;;;27.14;46.15
39449;BME280;25151;45.566;9.382;2023-06-24T13:31:46;99801.22;;;27.14;46.43
39449;BME280;25151;45.566;9.382;2023-06-24T13:34:51;99791.47;;;27.15;46.65
39449;BME280;25151;45.566;9.382;2023-06-24T13:37:57;99797.91;;;27.16;46.26
39449;BME280;25151;45.566;9.382;2023-06-24T13:41:01;99797.91;;;27.16;46.50
39449;BME280;25151;45.566;9.382;2023-06-24T13:44:05;99798.69;;;27.16;46.83
39449;BME280;25151;45.566;9.382;2023-06-24T13:47:10;99790.97;;;27.17;46.77
39449;BME280;25151;45.566;9.382;2023-06-24T13:50:18;99788.16;;;27.17;46.77
39449;BME280;25151;45.566;9.382;2023-06-24T13:53:22;99788.41;;;27.19;47.06
39449;BME280;25151;45.566;9.382;2023-06-24T13:56:27;99781.22;;;27.18;47.03
39449;BME280;25151;45.566;9.382;2023-06-24T13:59:31;99778.66;;;27.20;46.85
39449;BME280;25151;45.566;9.382;2023-06-24T14:02:36;99771.44;;;27.19;46.92
39449;BME280;25151;45.566;9.382;2023-06-24T14:05:39;99769.38;;;27.19;46.96
39449;BME280;25151;45.566;9.382;2023-06-24T14:08:47;99767.31;;;27.20;47.10
39449;BME280;25151;45.566;9.382;2023-06-24T14:11:51;99767.31;;;27.20;47.54
39449;BME280;25151;45.566;9.382;2023-06-24T14:14:55;99767.31;;;27.20;47.24
39449;BME280;25151;45.566;9.382;2023-06-24T14:17:59;99754.75;;;27.21;47.62
39449;BME280;25151;45.566;9.382;2023-06-24T14:21:06;99761.19;;;27.21;47.29
39449;BME280;25151;45.566;9.382;2023-06-24T14:24:13;99743.44;;;27.21;47.31
39449;BME280;25151;45.566;9.382;2023-06-24T14:27:16;99747.81;;;27.22;47.58
39449;BME280;25151;45.566;9.382;2023-06-24T14:30:21;99746.53;;;27.23;47.46
39449;BME280;25151;45.566;9.382;2023-06-24T14:33:25;99745.75;;;27.23;47.58
39449;BME280;25151;45.566;9.382;2023-06-24T14:36:31;99736.75;;;27.24;47.79
39449;BME280;25151;45.566;9.382;2023-06-24T14:39:36;99728.75;;;27.23;47.59
39449;BME280;25151;45.566;9.382;2023-06-24T14:42:40;99723.88;;;27.23;47.83
39449;BME280;25151;45.566;9.382;2023-06-24T14:45:45;99727.47;;;27.24;47.57
39449;BME280;25151;45.566;9.382;2023-06-24T14:48:49;99723.41;;;27.25;47.60
39449;BME280;25151;45.566;9.382;2023-06-24T14:51:53;99727.00;;;27.25;47.66
39449;BME280;25151;45.566;9.382;2023-06-24T14:54:59;99733.44;;;27.26;48.18
39449;BME280;25151;45.566;9.382;2023-06-24T14:58:03;99724.16;;;27.25;48.24
39449;BME280;25151;45.566;9.382;2023-06-24T15:01:07;99719.28;;;27.26;48.17
39449;BME280;25151;45.566;9.382;2023-06-24T15:04:11;99725.72;;;27.26;47.89
39449;BME280;25151;45.566;9.382;2023-06-24T15:07:15;99718.50;;;27.25;48.43
39449;BME280;25151;45.566;9.382;2023-06-24T15:10:22;99711.56;;;27.26;48.27
39449;BME280;25151;45.566;9.382;2023-06-24T15:13:26;99710.28;;;27.27;48.52
39449;BME280;25151;45.566;9.382;2023-06-24T15:16:30;99712.34;;;27.27;48.19
39449;BME280;25151;45.566;9.382;2023-06-24T15:19:34;99710.28;;;27.27;48.09
39449;BME280;25151;45.566;9.382;2023-06-24T15:22:40;99711.56;;;27.26;48.27
39449;BME280;25151;45.566;9.382;2023-06-24T15:25:47;99707.44;;;27.27;48.24
39449;BME280;25151;45.566;9.382;2023-06-24T15:28:52;99701.00;;;27.27;48.73
39449;BME280;25151;45.566;9.382;2023-06-24T15:31:56;99702.56;;;27.28;48.31
39449;BME280;25151;45.566;9.382;2023-06-24T15:35:02;99701.78;;;27.27;48.73
39449;BME280;25151;45.566;9.382;2023-06-24T15:38:07;99698.19;;;27.27;48.42
39449;BME280;25151;45.566;9.382;2023-06-24T15:41:16;99703.38;;;27.28;48.63
39449;BME280;25151;45.566;9.382;2023-06-24T15:44:20;99695.63;;;27.29;48.66
39449;BME280;25151;45.566;9.382;2023-06-24T15:47:24;99697.44;;;27.32;48.46
39449;BME280;25151;45.566;9.382;2023-06-24T15:50:29;99689.47;;;27.30;48.67
39449;BME280;25151;45.566;9.382;2023-06-24T15:53:33;99681.28;;;27.32;48.90
39449;BME280;25151;45.566;9.382;2023-06-24T15:56:39;99686.94;;;27.32;49.33
39449;BME280;25151;45.566;9.382;2023-06-24T15:59:43;99687.69;;;27.33;49.59
39449;BME280;25151;45.566;9.382;2023-06-24T16:02:47;99677.16;;;27.33;49.62
39449;BME280;25151;45.566;9.382;2023-06-24T16:05:50;99680.25;;;27.35;49.73
39449;BME280;25151;45.566;9.382;2023-06-24T16:08:54;99681.81;;;27.36;49.82
39449;BME280;25151;45.566;9.382;2023-06-24T16:12:00;99681.81;;;27.36;49.86
39449;BME280;25151;45.566;9.382;2023-06-24T16:15:04;99679.00;;;27.36;49.52
39449;BME280;25151;45.566;9.382;2023-06-24T16:18:08;99676.16;;;27.36;50.25
39449;BME280;25151;45.566;9.382;2023-06-24T16:21:12;99679.25;;;27.38;50.00